Time;durP1;ratioP1;P1;durP2;ratioP2;P2;SDS_P1;SDS_P2;PMS_P1;PMS_P2;Temp;Humidity;BMP_temperature;BMP_pressure;BME280_temperature;BME280_humidity;BME280_pressure;Samples;Min_cycle;Max_cycle;Signal;HPM_P1;HPM_P2
2023/03/07 00:01:25;;;;;;;14.17;11.67;;;5.30;99.90;;;;;;5037881;28;20545;-41
2023/03/07 00:03:50;;;;;;;14.23;11.10;;;5.20;99.90;;;;;;5037702;28;20407;-43
2023/03/07 00:06:16;;;;;;;14.77;12.23;;;5.10;99.90;;;;;;5039165;28;20517;-45
2023/03/07 00:08:42;;;;;;;12.53;11.13;;;5.00;99.90;;;;;;5039711;28;20229;-43
2023/03/07 00:11:08;;;;;;;14.13;11.03;;;4.90;99.90;;;;;;5039208;28;20409;-42
2023/03/07 00:13:36;;;;;;;13.40;11.50;;;4.80;99.90;;;;;;5038967;28;20277;-42
2023/03/07 00:16:02;;;;;;;13.10;11.30;;;4.70;99.90;;;;;;5038030;28;20861;-42
2023/03/07 00:18:28;;;;;;;13.70;10.77;;;4.70;1.00;;;;;;5039195;28;20835;-42
2023/03/07 00:21:05;;;;;;;14.53;11.73;;;4.60;1.00;;;;;;5039007;28;20650;-41
2023/03/07 00:23:31;;;;;;;14.70;11.07;;;4.60;1.00;;;;;;5039138;28;20475;-40
2023/03/07 00:26:01;;;;;;;13.00;10.77;;;4.50;1.00;;;;;;5039170;28;20429;-41
2023/03/07 00:28:27;;;;;;;15.53;11.73;;;4.50;1.00;;;;;;5039126;28;20500;-41
2023/03/07 00:30:54;;;;;;;15.53;10.97;;;4.40;1.00;;;;;;5037425;28;20508;-41
2023/03/07 00:33:20;;;;;;;15.63;12.23;;;4.40;1.00;;;;;;5035251;28;20425;-42
2023/03/07 00:35:57;;;;;;;12.40;10.27;;;4.40;1.00;;;;;;5034687;28;20595;-41
2023/03/07 00:38:23;;;;;;;14.97;10.93;;;4.40;1.00;;;;;;5039300;28;20863;-42
2023/03/07 00:40:57;;;;;;;14.10;11.23;;;4.40;1.00;;;;;;5038337;28;20433;-43
2023/03/07 00:43:22;;;;;;;13.27;10.60;;;4.30;1.00;;;;;;5037789;28;20482;-43
2023/03/07 00:45:48;;;;;;;14.73;11.13;;;4.30;1.00;;;;;;5038165;28;20414;-44
2023/03/07 00:48:14;;;;;;;14.30;10.50;;;4.30;1.00;;;;;;5037564;28;20171;-41
2023/03/07 00:50:39;;;;;;;14.00;10.60;;;4.30;1.00;;;;;;5036401;28;20170;-44
2023/03/07 00:53:05;;;;;;;13.93;10.90;;;4.20;1.00;;;;;;5038590;28;20331;-44
2023/03/07 00:55:31;;;;;;;15.73;11.40;;;4.20;1.00;;;;;;5036661;28;20515;-43
2023/03/07 00:57:56;;;;;;;14.57;11.10;;;4.20;1.00;;;;;;5037859;28;20471;-42
2023/03/07 01:00:22;;;;;;;12.87;10.30;;;4.20;1.00;;;;;;5038052;28;20174;-42
2023/03/07 01:02:50;;;;;;;14.30;10.67;;;4.20;1.00;;;;;;5037902;28;20210;-42
2023/03/07 01:05:15;;;;;;;17.27;11.60;;;4.20;1.00;;;;;;5038477;28;20178;-42
2023/03/07 01:07:41;;;;;;;12.00;10.47;;;4.20;1.00;;;;;;5038342;28;20807;-42
2023/03/07 01:10:07;;;;;;;13.13;10.37;;;4.20;1.00;;;;;;5038078;28;20220;-42
2023/03/07 01:12:33;;;;;;;13.20;10.10;;;4.10;1.00;;;;;;5038022;28;20182;-41
2023/03/07 01:14:59;;;;;;;13.47;11.07;;;4.10;1.00;;;;;;5035894;28;21148;-41
2023/03/07 01:17:24;;;;;;;12.87;10.13;;;4.10;1.00;;;;;;5037446;28;20273;-42
2023/03/07 01:19:50;;;;;;;15.57;11.80;;;4.10;1.00;;;;;;5037687;28;20186;-41
2023/03/07 01:22:15;;;;;;;12.60;10.20;;;4.10;1.00;;;;;;5036775;28;20220;-42
2023/03/07 01:24:41;;;;;;;15.07;10.90;;;4.10;1.00;;;;;;5037579;28;20170;-41
2023/03/07 01:27:07;;;;;;;12.53;9.80;;;4.10;1.00;;;;;;5037537;28;20501;-41
2023/03/07 01:29:32;;;;;;;13.23;10.33;;;4.10;1.00;;;;;;5037830;28;20218;-42
2023/03/07 01:31:58;;;;;;;12.60;10.07;;;4.00;1.00;;;;;;5038242;28;20249;-43
2023/03/07 01:34:24;;;;;;;11.40;9.60;;;4.00;1.00;;;;;;5038180;28;20277;-43
2023/03/07 01:36:49;;;;;;;14.50;11.30;;;4.00;1.00;;;;;;5038098;28;20209;-42
2023/03/07 01:39:16;;;;;;;13.00;9.13;;;4.00;99.90;;;;;;5036646;28;20472;-41
2023/03/07 01:41:43;;;;;;;12.13;9.83;;;4.00;1.00;;;;;;5037277;28;20242;-42
2023/03/07 01:44:26;;;;;;;12.57;9.80;;;4.00;99.90;;;;;;5038176;28;20429;-41
2023/03/07 01:46:56;;;;;;;14.67;10.43;;;4.00;1.00;;;;;;5038471;28;20424;-42
2023/03/07 01:49:35;;;;;;;16.37;10.83;;;4.00;1.00;;;;;;5037877;28;20510;-42
2023/03/07 01:52:06;;;;;;;15.20;11.30;;;4.00;1.00;;;;;;5037150;28;20447;-42
2023/03/07 01:54:33;;;;;;;15.17;11.73;;;4.00;1.00;;;;;;5037696;28;20420;-42
2023/03/07 01:57:01;;;;;;;11.80;10.30;;;4.00;1.00;;;;;;5036550;28;20827;-42
2023/03/07 01:59:36;;;;;;;15.43;12.23;;;4.00;1.00;;;;;;5037707;28;20489;-42
2023/03/07 02:02:10;;;;;;;15.50;11.27;;;4.00;1.00;;;;;;5036066;28;20530;-41
2023/03/07 02:04:48;;;;;;;13.70;11.07;;;4.00;1.00;;;;;;5036532;28;20491;-42
2023/03/07 02:07:15;;;;;;;12.53;10.40;;;4.00;1.00;;;;;;5037384;28;20516;-42
2023/03/07 02:09:42;;;;;;;13.40;11.57;;;4.00;1.00;;;;;;5040033;28;20421;-44
2023/03/07 02:12:08;;;;;;;15.07;11.20;;;4.00;1.00;;;;;;5038654;28;20546;-40
2023/03/07 02:14:34;;;;;;;13.27;11.17;;;4.00;1.00;;;;;;5037910;28;20435;-41
2023/03/07 02:17:00;;;;;;;15.40;11.67;;;3.90;1.00;;;;;;5039337;28;20499;-42
2023/03/07 02:19:44;;;;;;;12.07;10.10;;;4.00;1.00;;;;;;5039547;28;20209;-43
2023/03/07 02:22:12;;;;;;;12.20;9.90;;;3.90;1.00;;;;;;5037970;28;20479;-40
2023/03/07 02:24:55;;;;;;;15.80;12.47;;;4.00;1.00;;;;;;5040255;28;20417;-42
2023/03/07 02:27:24;;;;;;;13.33;11.10;;;4.00;1.00;;;;;;5039853;28;20869;-42
2023/03/07 02:29:50;;;;;;;11.97;10.20;;;4.00;1.00;;;;;;5039585;28;20469;-43
2023/03/07 02:32:16;;;;;;;12.90;10.20;;;3.90;1.00;;;;;;5039813;28;20421;-42
2023/03/07 02:34:41;;;;;;;13.53;10.80;;;3.90;1.00;;;;;;5039837;28;20486;-42
2023/03/07 02:37:15;;;;;;;15.93;12.00;;;3.90;99.90;;;;;;5039524;28;20440;-42
2023/03/07 02:39:42;;;;;;;12.13;10.57;;;3.90;99.90;;;;;;5038755;28;20182;-42
2023/03/07 02:42:10;;;;;;;15.07;11.07;;;3.90;99.90;;;;;;5038904;28;20496;-42
2023/03/07 02:44:36;;;;;;;12.80;10.67;;;3.90;99.90;;;;;;5038722;28;20419;-42
2023/03/07 02:47:01;;;;;;;13.97;10.77;;;3.90;99.90;;;;;;5039757;28;20516;-42
2023/03/07 02:49:27;;;;;;;12.40;10.63;;;3.90;99.90;;;;;;5039420;28;20212;-40
2023/03/07 02:51:56;;;;;;;13.57;10.77;;;3.90;99.90;;;;;;5038885;28;20233;-40
2023/03/07 02:54:22;;;;;;;15.20;11.37;;;3.90;99.90;;;;;;5039702;28;20265;-42
2023/03/07 02:56:47;;;;;;;13.07;10.23;;;3.90;99.90;;;;;;5039537;28;20471;-42
2023/03/07 02:59:13;;;;;;;13.30;11.00;;;3.90;99.90;;;;;;5038326;28;20422;-41
2023/03/07 03:01:39;;;;;;;15.10;12.47;;;3.90;99.90;;;;;;5039494;28;20182;-42
2023/03/07 03:04:04;;;;;;;13.17;11.37;;;3.80;99.90;;;;;;5039508;28;20174;-43
2023/03/07 03:06:30;;;;;;;12.83;10.37;;;3.90;99.90;;;;;;5039226;28;20174;-42
2023/03/07 03:08:55;;;;;;;14.57;11.47;;;3.80;99.90;;;;;;5039545;28;20182;-41
2023/03/07 03:11:21;;;;;;;13.30;11.30;;;3.80;1.00;;;;;;5038853;28;20269;-43
2023/03/07 03:13:47;;;;;;;13.07;10.87;;;3.80;1.00;;;;;;5038229;28;20469;-42
2023/03/07 03:16:12;;;;;;;15.20;11.60;;;3.80;1.00;;;;;;5037174;28;20642;-42
2023/03/07 03:18:38;;;;;;;15.53;11.00;;;3.80;1.00;;;;;;5036355;28;20293;-41
2023/03/07 03:21:09;;;;;;;13.63;11.60;;;3.80;1.00;;;;;;5038136;28;20206;-41
2023/03/07 03:23:35;;;;;;;15.40;11.57;;;3.70;1.00;;;;;;5037697;28;20902;-42
2023/03/07 03:26:06;;;;;;;13.57;12.10;;;3.80;1.00;;;;;;5038276;28;20747;-43
2023/03/07 03:28:33;;;;;;;13.70;10.73;;;3.80;1.00;;;;;;5038077;28;20448;-44
2023/03/07 03:31:03;;;;;;;14.67;11.03;;;3.70;1.00;;;;;;5038705;28;20584;-41
2023/03/07 03:33:29;;;;;;;13.50;11.13;;;3.70;1.00;;;;;;5038133;28;20425;-42
2023/03/07 03:35:58;;;;;;;14.67;10.83;;;3.80;1.00;;;;;;5038781;28;20490;-41
2023/03/07 03:38:25;;;;;;;15.13;11.63;;;3.80;1.00;;;;;;5038564;28;20405;-42
2023/03/07 03:40:51;;;;;;;15.53;11.80;;;3.80;1.00;;;;;;5038390;28;20573;-41
2023/03/07 03:43:17;;;;;;;15.43;12.53;;;3.80;1.00;;;;;;5037768;28;20464;-42
2023/03/07 03:45:43;;;;;;;16.30;11.83;;;3.80;1.00;;;;;;5038446;28;20166;-41
2023/03/07 03:48:08;;;;;;;17.20;12.50;;;3.80;1.00;;;;;;5038715;28;20500;-43
2023/03/07 03:50:34;;;;;;;14.23;11.70;;;3.80;1.00;;;;;;5037862;28;20519;-42
2023/03/07 03:53:01;;;;;;;17.07;12.33;;;3.80;1.00;;;;;;5036329;28;20226;-41
2023/03/07 03:55:26;;;;;;;14.73;12.17;;;3.80;1.00;;;;;;5036253;28;20307;-42
2023/03/07 03:57:52;;;;;;;16.87;11.47;;;3.80;99.90;;;;;;5035229;28;20490;-41
2023/03/07 04:00:18;;;;;;;14.53;12.13;;;3.90;99.90;;;;;;5035951;28;20325;-41
2023/03/07 04:02:47;;;;;;;13.70;11.00;;;3.90;99.90;;;;;;5035474;28;20628;-44
2023/03/07 04:05:12;;;;;;;16.03;12.70;;;3.90;99.90;;;;;;5035242;28;20424;-42
2023/03/07 04:07:38;;;;;;;14.57;11.30;;;3.90;99.90;;;;;;5037341;28;20421;-42
2023/03/07 04:10:04;;;;;;;15.73;12.03;;;3.90;99.90;;;;;;5037027;28;20185;-42
2023/03/07 04:12:30;;;;;;;13.70;11.40;;;3.90;99.90;;;;;;5036595;28;20193;-41
2023/03/07 04:14:56;;;;;;;13.63;11.43;;;3.90;99.90;;;;;;5037017;28;20413;-42
2023/03/07 04:17:22;;;;;;;14.30;11.57;;;3.90;99.90;;;;;;5036136;28;20555;-41
2023/03/07 04:19:47;;;;;;;15.77;11.93;;;3.90;99.90;;;;;;5037897;28;20591;-44
2023/03/07 04:22:13;;;;;;;13.67;11.40;;;4.00;99.90;;;;;;5038052;28;20214;-43
2023/03/07 04:24:39;;;;;;;17.30;10.83;;;3.90;99.90;;;;;;5038145;28;20189;-42
2023/03/07 04:27:06;;;;;;;16.70;12.00;;;4.00;99.90;;;;;;5037858;28;20260;-41
2023/03/07 04:29:32;;;;;;;15.93;11.70;;;3.90;99.90;;;;;;5036221;28;20230;-42
2023/03/07 04:31:57;;;;;;;14.63;11.67;;;3.90;99.90;;;;;;5036230;28;20435;-43
2023/03/07 04:34:23;;;;;;;16.30;11.57;;;4.00;99.90;;;;;;5036696;28;20742;-43
2023/03/07 04:36:49;;;;;;;14.57;12.43;;;3.90;99.90;;;;;;5036284;28;20206;-41
2023/03/07 04:39:14;;;;;;;14.70;11.97;;;4.00;99.90;;;;;;5035871;28;20252;-42
2023/03/07 04:41:40;;;;;;;14.93;10.73;;;4.00;99.90;;;;;;5035361;28;20559;-42
2023/03/07 04:44:06;;;;;;;16.50;12.50;;;4.00;99.90;;;;;;5035486;28;20186;-42
2023/03/07 04:46:31;;;;;;;15.53;12.10;;;4.00;99.90;;;;;;5036685;28;20364;-43
2023/03/07 04:48:57;;;;;;;15.87;12.10;;;4.00;99.90;;;;;;5036254;28;20182;-43
2023/03/07 04:51:23;;;;;;;13.27;10.17;;;4.00;99.90;;;;;;5037046;28;20178;-42
2023/03/07 04:53:49;;;;;;;14.33;12.03;;;4.00;99.90;;;;;;5034329;28;20187;-41
2023/03/07 04:56:15;;;;;;;15.47;12.57;;;4.00;99.90;;;;;;5034355;28;20182;-43
2023/03/07 04:58:41;;;;;;;12.93;11.00;;;4.00;99.90;;;;;;5035580;28;20280;-44
2023/03/07 05:01:06;;;;;;;15.77;11.83;;;4.00;99.90;;;;;;5035468;28;20433;-43
2023/03/07 05:03:33;;;;;;;17.27;13.17;;;4.00;99.90;;;;;;5036673;28;20917;-42
2023/03/07 05:06:04;;;;;;;17.70;12.07;;;4.00;99.90;;;;;;5035741;28;20228;-42
2023/03/07 05:08:30;;;;;;;13.23;11.30;;;3.90;99.90;;;;;;5034374;28;20482;-42
2023/03/07 05:10:56;;;;;;;17.00;13.20;;;3.90;99.90;;;;;;5034095;28;20512;-43
2023/03/07 05:13:23;;;;;;;14.10;11.37;;;3.90;99.90;;;;;;5034697;28;20468;-42
2023/03/07 05:15:51;;;;;;;15.10;11.67;;;3.90;99.90;;;;;;5033337;28;20544;-42
2023/03/07 05:18:17;;;;;;;12.50;11.20;;;3.90;99.90;;;;;;5032788;28;20786;-42
2023/03/07 05:20:42;;;;;;;13.30;10.73;;;3.90;99.90;;;;;;5033328;28;20812;-42
2023/03/07 05:23:08;;;;;;;16.00;10.37;;;3.90;99.90;;;;;;5033612;28;20225;-41
2023/03/07 05:25:33;;;;;;;13.97;11.33;;;3.90;99.90;;;;;;5033548;28;20300;-42
2023/03/07 05:27:59;;;;;;;16.10;12.40;;;4.00;99.90;;;;;;5032560;28;20561;-42
2023/03/07 05:30:25;;;;;;;13.60;11.03;;;3.90;99.90;;;;;;5034384;28;20678;-43
2023/03/07 05:32:50;;;;;;;15.70;11.50;;;3.90;99.90;;;;;;5032070;28;20592;-41
2023/03/07 05:35:16;;;;;;;15.93;11.03;;;3.90;99.90;;;;;;5034645;28;20189;-43
2023/03/07 05:37:42;;;;;;;13.40;11.17;;;3.90;99.90;;;;;;5033907;28;20178;-41
2023/03/07 05:40:09;;;;;;;13.77;11.90;;;3.90;99.90;;;;;;5034227;28;20557;-41
2023/03/07 05:42:34;;;;;;;14.33;11.10;;;3.90;99.90;;;;;;5037290;28;20209;-42
2023/03/07 05:45:00;;;;;;;12.40;10.30;;;3.90;99.90;;;;;;5037454;28;20417;-41
2023/03/07 05:47:26;;;;;;;15.60;12.10;;;3.90;99.90;;;;;;5037120;28;20189;-42
2023/03/07 05:49:52;;;;;;;16.03;11.17;;;3.90;99.90;;;;;;5036983;28;20417;-40
2023/03/07 05:52:19;;;;;;;15.07;11.67;;;3.90;99.90;;;;;;5037697;28;20267;-41
2023/03/07 05:54:45;;;;;;;12.60;10.07;;;3.90;99.90;;;;;;5038091;28;20178;-41
2023/03/07 05:57:10;;;;;;;12.27;9.97;;;3.90;99.90;;;;;;5036522;28;20439;-41
2023/03/07 05:59:36;;;;;;;15.47;12.37;;;3.80;99.90;;;;;;5034883;28;20461;-43
2023/03/07 06:02:02;;;;;;;13.60;10.40;;;3.80;99.90;;;;;;5035641;28;20437;-43
2023/03/07 06:04:27;;;;;;;12.70;10.30;;;3.80;99.90;;;;;;5036630;28;20221;-41
2023/03/07 06:06:53;;;;;;;13.10;10.50;;;3.80;99.90;;;;;;5036349;28;20174;-41
2023/03/07 06:09:21;;;;;;;14.00;10.10;;;3.80;99.90;;;;;;5034029;28;20214;-41
2023/03/07 06:11:46;;;;;;;12.57;9.77;;;3.80;99.90;;;;;;5035626;28;20175;-41
2023/03/07 06:14:12;;;;;;;14.90;10.67;;;3.80;99.90;;;;;;5036411;28;20417;-43
2023/03/07 06:16:38;;;;;;;13.67;10.63;;;3.80;99.90;;;;;;5032426;28;20178;-41
2023/03/07 06:19:03;;;;;;;13.33;10.50;;;3.80;99.90;;;;;;5028782;28;20317;-41
2023/03/07 06:21:29;;;;;;;13.50;10.23;;;3.80;99.90;;;;;;5011220;28;20637;-43
2023/03/07 06:23:55;;;;;;;11.60;8.77;;;3.80;99.90;;;;;;5032765;28;20213;-42
2023/03/07 06:26:21;;;;;;;13.17;10.57;;;3.90;95.60;;;;;;5033774;28;20455;-41
2023/03/07 06:28:47;;;;;;;11.87;9.27;;;3.90;91.30;;;;;;5030272;28;20500;-41
2023/03/07 06:31:15;;;;;;;12.60;9.90;;;3.90;83.90;;;;;;5032427;28;20214;-42
2023/03/07 06:33:41;;;;;;;11.80;9.90;;;4.00;67.60;;;;;;5028769;28;20428;-42
2023/03/07 06:36:09;;;;;;;13.67;10.27;;;4.00;53.50;;;;;;5030057;28;20569;-43
2023/03/07 06:38:34;;;;;;;13.00;10.70;;;4.00;49.00;;;;;;5027900;28;20669;-42
2023/03/07 06:41:00;;;;;;;13.73;9.60;;;4.10;38.60;;;;;;5012543;28;20527;-40
2023/03/07 06:43:26;;;;;;;12.43;9.43;;;4.10;30.20;;;;;;5009337;28;20297;-41
2023/03/07 06:45:51;;;;;;;13.73;10.37;;;4.20;24.50;;;;;;5008833;28;20404;-41
2023/03/07 06:48:17;;;;;;;13.77;10.33;;;4.20;14.20;;;;;;5012203;28;20184;-41
2023/03/07 06:50:43;;;;;;;11.67;9.47;;;4.30;10.60;;;;;;5009785;28;20179;-41
2023/03/07 06:53:09;;;;;;;11.60;9.30;;;4.40;6.80;;;;;;5013244;28;20183;-41
2023/03/07 06:55:35;;;;;;;12.97;9.63;;;4.50;1.00;;;;;;5014411;28;20409;-42
2023/03/07 06:58:00;;;;;;;13.13;10.33;;;4.60;1.00;;;;;;5012530;28;20396;-41
2023/03/07 07:00:26;;;;;;;11.60;8.87;;;4.70;1.00;;;;;;5010842;28;20463;-40
2023/03/07 07:02:52;;;;;;;14.53;8.90;;;4.80;1.00;;;;;;5011334;28;20214;-42
2023/03/07 07:05:17;;;;;;;11.10;9.20;;;4.90;1.00;;;;;;5015518;28;20456;-43
2023/03/07 07:07:43;;;;;;;10.90;9.27;;;5.10;1.00;;;;;;5015365;28;20176;-42
2023/03/07 07:10:09;;;;;;;12.63;9.77;;;5.20;1.00;;;;;;5016376;28;20258;-41
2023/03/07 07:12:35;;;;;;;10.93;9.83;;;5.30;1.00;;;;;;5014982;28;20639;-42
2023/03/07 07:15:01;;;;;;;11.70;9.03;;;5.40;1.00;;;;;;5015766;28;20876;-43
2023/03/07 07:17:28;;;;;;;13.03;10.13;;;5.50;1.00;;;;;;5013060;28;20423;-42
2023/03/07 07:19:54;;;;;;;12.20;9.80;;;5.60;1.00;;;;;;5012977;28;20190;-43
2023/03/07 07:22:19;;;;;;;13.67;10.00;;;5.70;1.00;;;;;;5013609;28;20469;-44
2023/03/07 07:24:45;;;;;;;12.07;9.07;;;5.80;1.00;;;;;;5014360;28;20509;-42
2023/03/07 07:27:10;;;;;;;10.97;9.00;;;6.00;1.00;;;;;;5014697;28;20217;-42
2023/03/07 07:29:36;;;;;;;10.63;8.93;;;6.10;1.00;;;;;;5013400;28;20273;-41
2023/03/07 07:32:02;;;;;;;10.00;8.13;;;6.30;1.00;;;;;;5013364;28;20183;-43
2023/03/07 07:34:27;;;;;;;9.60;8.37;;;6.40;1.00;;;;;;5011672;28;20183;-43
2023/03/07 07:36:53;;;;;;;11.80;10.17;;;6.60;1.00;;;;;;5011841;28;20186;-43
2023/03/07 07:39:20;;;;;;;6.50;5.60;;;6.70;1.00;;;;;;5011798;28;20364;-43
2023/03/07 07:41:46;;;;;;;7.67;6.07;;;7.50;99.90;;;;;;5013007;28;20175;-44
2023/03/07 07:44:12;;;;;;;10.90;6.93;;;8.30;99.90;;;;;;5012773;28;20499;-42
2023/03/07 07:46:38;;;;;;;7.97;6.53;;;8.90;99.90;;;;;;5012188;28;20946;-43
2023/03/07 07:49:03;;;;;;;8.20;6.20;;;9.50;1.00;;;;;;5011460;28;20183;-40
2023/03/07 07:51:29;;;;;;;10.73;7.73;;;10.20;1.00;;;;;;5010457;28;20233;-42
2023/03/07 07:53:55;;;;;;;13.13;9.53;;;10.50;1.00;;;;;;5009173;28;20188;-42
2023/03/07 07:56:20;;;;;;;11.27;10.00;;;10.40;1.00;;;;;;5010166;28;20264;-41
2023/03/07 07:58:46;;;;;;;10.83;9.20;;;10.40;1.00;;;;;;5010835;28;20337;-41
2023/03/07 08:01:19;;;;;;;11.80;9.47;;;10.20;1.00;;;;;;5012449;28;20187;-42
2023/03/07 08:03:44;;;;;;;13.37;10.53;;;10.10;1.00;;;;;;5013712;28;20482;-42
2023/03/07 08:06:10;;;;;;;10.50;9.20;;;10.00;1.00;;;;;;5011550;28;20437;-42
2023/03/07 08:08:37;;;;;;;11.27;9.50;;;9.90;1.00;;;;;;5013000;28;20465;-42
2023/03/07 08:11:03;;;;;;;10.70;9.43;;;9.90;1.00;;;;;;5013694;28;20740;-42
2023/03/07 08:13:29;;;;;;;10.10;8.70;;;10.10;1.00;;;;;;5013589;28;20430;-41
2023/03/07 08:15:54;;;;;;;10.20;9.07;;;10.30;1.00;;;;;;5015309;28;20787;-41
2023/03/07 08:18:20;;;;;;;13.87;10.10;;;10.60;1.00;;;;;;5012424;28;20660;-43
2023/03/07 08:20:46;;;;;;;9.70;8.70;;;10.80;1.00;;;;;;5012802;28;20183;-42
2023/03/07 08:23:12;;;;;;;10.57;9.20;;;11.10;1.00;;;;;;5010313;28;20892;-41
2023/03/07 08:25:38;;;;;;;11.63;9.93;;;11.30;1.00;;;;;;5012477;28;20530;-42
2023/03/07 08:28:04;;;;;;;10.30;9.23;;;11.40;1.00;;;;;;5013343;28;20183;-43
2023/03/07 08:30:32;;;;;;;12.70;9.20;;;11.40;1.00;;;;;;5014414;28;20470;-41
2023/03/07 08:32:58;;;;;;;10.73;8.60;;;11.40;1.00;;;;;;5013162;28;20527;-43
2023/03/07 08:35:25;;;;;;;9.87;8.87;;;11.40;1.00;;;;;;5014844;28;20426;-41
2023/03/07 08:37:55;;;;;;;11.80;9.77;;;11.30;1.00;;;;;;5015338;28;20480;-43
2023/03/07 08:40:22;;;;;;;9.93;8.87;;;11.50;1.00;;;;;;5014598;28;20625;-41
2023/03/07 08:42:48;;;;;;;12.03;10.43;;;11.50;1.00;;;;;;5012808;28;20466;-41
2023/03/07 08:45:14;;;;;;;10.70;9.60;;;11.60;1.00;;;;;;5012837;28;20422;-42
2023/03/07 08:47:39;;;;;;;12.97;9.90;;;11.40;1.00;;;;;;5014260;28;20175;-43
2023/03/07 08:50:06;;;;;;;12.83;9.20;;;11.40;1.00;;;;;;5015227;28;20600;-42
2023/03/07 08:52:31;;;;;;;10.70;9.10;;;11.40;1.00;;;;;;5014405;28;20257;-42
2023/03/07 08:54:57;;;;;;;9.30;8.20;;;11.40;1.00;;;;;;5014426;28;20429;-41
2023/03/07 08:57:23;;;;;;;13.07;9.90;;;11.40;1.00;;;;;;5013389;28;20266;-41
2023/03/07 08:59:49;;;;;;;11.00;8.33;;;11.30;1.00;;;;;;5014835;28;20191;-41
2023/03/07 09:02:14;;;;;;;8.90;7.97;;;11.10;1.00;;;;;;5014244;28;20199;-41
2023/03/07 09:04:40;;;;;;;8.73;7.83;;;11.00;1.00;;;;;;5014579;28;20425;-41
2023/03/07 09:07:06;;;;;;;10.00;8.73;;;10.90;1.00;;;;;;5015014;28;20175;-45
2023/03/07 09:09:32;;;;;;;8.83;7.93;;;10.60;1.00;;;;;;5013955;28;20562;-43
2023/03/07 09:11:57;;;;;;;9.77;8.50;;;10.40;1.00;;;;;;4998007;28;20478;-41
2023/03/07 09:14:24;;;;;;;8.80;7.90;;;10.30;1.00;;;;;;5014974;28;20194;-42
2023/03/07 09:16:50;;;;;;;9.93;8.07;;;10.20;1.00;;;;;;5014622;28;20648;-43
2023/03/07 09:19:16;;;;;;;9.70;8.70;;;10.10;1.00;;;;;;4995358;28;20426;-41
2023/03/07 09:21:42;;;;;;;9.33;8.33;;;10.00;1.00;;;;;;5011738;28;20514;-43
2023/03/07 09:24:08;;;;;;;9.27;8.27;;;9.90;1.00;;;;;;4996455;28;20743;-41
2023/03/07 09:26:34;;;;;;;9.17;7.40;;;9.80;1.00;;;;;;4997150;28;20505;-41
2023/03/07 09:28:59;;;;;;;9.30;8.30;;;9.60;1.00;;;;;;5014798;28;20205;-41
2023/03/07 09:31:25;;;;;;;9.37;7.90;;;9.50;1.00;;;;;;5011713;28;20522;-42
2023/03/07 09:33:51;;;;;;;8.63;7.73;;;9.30;1.00;;;;;;5011106;28;20418;-41
2023/03/07 09:36:18;;;;;;;8.97;7.80;;;9.20;1.00;;;;;;5009581;28;20175;-43
2023/03/07 09:38:45;;;;;;;9.67;8.33;;;9.00;1.00;;;;;;5012474;28;20430;-42
2023/03/07 09:41:20;;;;;;;9.07;8.00;;;8.90;1.00;;;;;;5009955;28;20524;-43
2023/03/07 09:44:18;;;;;;;9.00;8.10;;;8.80;1.00;;;;;;5011389;28;20460;-42
2023/03/07 09:46:52;;;;;;;10.20;8.17;;;8.70;1.00;;;;;;5012850;28;20476;-42
2023/03/07 09:49:28;;;;;;;11.30;7.93;;;8.60;1.00;;;;;;5013186;28;20410;-42
2023/03/07 09:51:57;;;;;;;10.97;8.63;;;8.50;1.00;;;;;;5011898;28;20815;-41
2023/03/07 09:54:45;;;;;;;10.07;9.00;;;8.40;1.00;;;;;;5011553;28;20425;-42
2023/03/07 09:57:31;;;;;;;9.70;8.30;;;8.30;1.00;;;;;;5002424;28;20468;-42
2023/03/07 10:00:17;;;;;;;10.03;8.93;;;8.20;1.00;;;;;;5012265;28;20425;-43
2023/03/07 10:02:49;;;;;;;10.57;8.80;;;8.10;1.00;;;;;;5012648;28;20481;-41
2023/03/07 10:05:23;;;;;;;12.27;9.50;;;8.00;1.00;;;;;;5010667;28;20841;-43
2023/03/07 10:07:49;;;;;;;9.20;8.30;;;8.00;1.00;;;;;;5015430;28;20425;-43
2023/03/07 10:10:29;;;;;;;10.87;8.80;;;7.90;1.00;;;;;;5014418;28;20682;-42
2023/03/07 10:13:29;;;;;;;10.67;8.20;;;7.90;1.00;;;;;;4996764;28;20214;-41
2023/03/07 10:15:58;;;;;;;9.40;8.33;;;7.90;1.00;;;;;;5012756;28;20440;-41
2023/03/07 10:18:47;;;;;;;9.87;8.40;;;7.90;1.00;;;;;;5011563;28;20785;-42
2023/03/07 10:21:21;;;;;;;11.00;9.40;;;7.90;1.00;;;;;;5012483;28;20720;-42
2023/03/07 10:24:07;;;;;;;10.00;7.97;;;7.90;1.00;;;;;;5012943;28;20491;-41
2023/03/07 10:26:44;;;;;;;12.10;8.33;;;7.90;1.00;;;;;;5010744;28;20454;-42
2023/03/07 10:29:23;;;;;;;10.80;9.00;;;7.90;1.00;;;;;;5012886;28;20410;-43
2023/03/07 10:31:54;;;;;;;15.17;6.80;;;8.00;1.00;;;;;;4996227;28;20444;-42
2023/03/07 10:34:26;;;;;;;10.57;6.93;;;8.10;1.00;;;;;;5015469;28;20438;-41
2023/03/07 10:37:28;;;;;;;10.70;9.17;;;8.60;1.00;;;;;;5015633;28;20436;-42
2023/03/07 10:39:56;;;;;;;9.60;8.50;;;8.70;1.00;;;;;;4974378;28;20893;-41
2023/03/07 10:42:23;;;;;;;11.27;8.40;;;8.70;1.00;;;;;;5005959;28;20489;-42
2023/03/07 10:44:50;;;;;;;9.27;8.27;;;8.60;1.00;;;;;;5015421;28;20422;-41
2023/03/07 10:47:24;;;;;;;10.93;9.50;;;8.50;1.00;;;;;;5016192;28;20862;-41
2023/03/07 10:49:54;;;;;;;11.40;8.93;;;8.40;1.00;;;;;;5018170;28;20526;-42
2023/03/07 10:52:40;;;;;;;10.47;8.90;;;8.30;1.00;;;;;;5016002;28;20844;-44
2023/03/07 10:55:54;;;;;;;9.77;8.77;;;8.20;1.00;;;;;;5013921;28;20777;-42
2023/03/07 10:58:24;;;;;;;9.37;8.47;;;8.10;1.00;;;;;;5000836;28;20935;-41
2023/03/07 11:01:05;;;;;;;12.17;8.70;;;8.00;1.00;;;;;;5015333;28;20422;-41
2023/03/07 11:03:51;;;;;;;8.47;7.63;;;7.90;1.00;;;;;;5014156;28;20454;-43
2023/03/07 11:06:59;;;;;;;8.97;7.83;;;7.80;1.00;;;;;;5014409;28;20737;-43
2023/03/07 11:09:29;;;;;;;10.70;8.57;;;7.70;1.00;;;;;;5010070;28;20422;-41
2023/03/07 11:12:03;;;;;;;11.07;8.60;;;7.70;1.00;;;;;;5013257;28;20438;-40
2023/03/07 11:14:29;;;;;;;8.93;7.70;;;7.70;1.00;;;;;;5013247;28;20429;-40
2023/03/07 11:17:00;;;;;;;11.20;8.93;;;7.70;1.00;;;;;;5014247;28;20418;-42
2023/03/07 11:19:36;;;;;;;10.50;8.67;;;7.70;1.00;;;;;;5012744;28;20566;-43
2023/03/07 11:22:18;;;;;;;9.80;4.97;;;7.70;1.00;;;;;;5016741;28;20751;-43
2023/03/07 11:24:58;;;;;;;9.63;7.10;;;8.20;99.90;;;;;;5014806;28;20677;-44
2023/03/07 11:27:44;;;;;;;8.70;7.17;;;8.70;58.30;;;;;;5015601;28;20429;-42
2023/03/07 11:30:40;;;;;;;10.47;7.97;;;8.80;1.00;;;;;;5007894;28;20474;-42
2023/03/07 11:33:21;;;;;;;9.17;8.20;;;8.70;1.00;;;;;;5015527;28;20442;-42
2023/03/07 11:35:58;;;;;;;10.70;8.50;;;8.70;1.00;;;;;;5013060;28;20480;-43
2023/03/07 11:38:35;;;;;;;10.23;8.37;;;8.60;1.00;;;;;;5015243;28;20846;-42
2023/03/07 11:41:15;;;;;;;10.80;8.40;;;8.40;1.00;;;;;;5014376;28;20579;-42
2023/03/07 11:44:17;;;;;;;10.77;8.70;;;8.30;1.00;;;;;;5015919;28;20569;-42
2023/03/07 11:47:01;;;;;;;11.77;9.03;;;8.10;1.00;;;;;;5015738;28;20422;-43
2023/03/07 11:50:03;;;;;;;10.07;8.70;;;8.00;1.00;;;;;;5015321;28;20421;-41
2023/03/07 11:52:31;;;;;;;12.00;9.87;;;7.80;1.00;;;;;;5012666;28;21178;-43
2023/03/07 11:55:34;;;;;;;10.20;8.20;;;7.70;1.00;;;;;;5011508;28;20486;-42
2023/03/07 11:58:33;;;;;;;11.20;8.77;;;7.70;1.00;;;;;;5013325;28;20713;-42
2023/03/07 12:00:58;;;;;;;9.13;7.70;;;7.70;1.00;;;;;;5011621;28;20532;-42
2023/03/07 12:04:01;;;;;;;12.40;8.87;;;7.70;1.00;;;;;;5012107;28;20608;-41
2023/03/07 12:06:28;;;;;;;11.53;9.30;;;7.60;1.00;;;;;;5013658;28;20178;-41
2023/03/07 12:09:07;;;;;;;9.10;7.60;;;7.60;1.00;;;;;;4994509;28;20425;-41
2023/03/07 12:11:50;;;;;;;11.73;8.90;;;7.50;1.00;;;;;;5009660;28;20479;-43
2023/03/07 12:14:19;;;;;;;9.53;8.23;;;7.50;1.00;;;;;;5009636;28;20409;-42
2023/03/07 12:17:05;;;;;;;14.70;9.87;;;7.60;1.00;;;;;;5010239;28;20542;-45
2023/03/07 12:19:56;;;;;;;13.43;10.40;;;7.70;1.00;;;;;;5007259;28;20406;-43
2023/03/07 12:22:23;;;;;;;10.57;8.77;;;7.80;1.00;;;;;;5009107;28;21007;-43
2023/03/07 12:25:07;;;;;;;9.07;8.10;;;7.80;1.00;;;;;;5009272;28;20886;-43
2023/03/07 12:27:41;;;;;;;12.90;9.70;;;8.00;1.00;;;;;;5012538;28;20929;-43
2023/03/07 12:30:19;;;;;;;13.70;9.53;;;8.20;1.00;;;;;;5008779;28;20461;-44
2023/03/07 12:32:45;;;;;;;8.67;7.33;;;8.30;1.00;;;;;;5006344;28;20591;-42
2023/03/07 12:35:16;;;;;;;10.17;8.20;;;8.50;1.00;;;;;;5008315;28;20850;-42
2023/03/07 12:37:53;;;;;;;10.30;7.73;;;8.70;1.00;;;;;;5011858;28;20456;-41
2023/03/07 12:40:25;;;;;;;8.73;7.83;;;8.90;1.00;;;;;;4993116;28;20433;-41
2023/03/07 12:43:12;;;;;;;10.13;7.87;;;9.00;1.00;;;;;;5010584;28;20781;-42
2023/03/07 12:45:51;;;;;;;9.23;7.67;;;9.20;1.00;;;;;;5010982;28;20422;-41
2023/03/07 12:48:30;;;;;;;8.23;7.43;;;9.30;1.00;;;;;;5011789;28;20471;-42
2023/03/07 12:51:03;;;;;;;9.47;7.30;;;9.50;1.00;;;;;;5010274;28;20429;-41
2023/03/07 12:53:53;;;;;;;8.20;6.90;;;9.70;1.00;;;;;;5013647;28;20435;-41
2023/03/07 12:56:26;;;;;;;8.47;7.57;;;9.90;1.00;;;;;;5010457;28;20414;-41
2023/03/07 12:59:11;;;;;;;8.83;7.60;;;10.00;1.00;;;;;;4995952;28;20650;-42
2023/03/07 13:01:46;;;;;;;7.63;6.83;;;10.00;1.00;;;;;;5013110;28;20433;-45